createdAt,value
2023-11-03T00:00:45.595Z,92.90
2023-11-03T00:03:13.365Z,93.10
2023-11-03T00:05:41.091Z,93.10
2023-11-03T00:08:09.829Z,93.40
2023-11-03T00:10:39.605Z,93.60
2023-11-03T00:13:07.353Z,93.80
2023-11-03T00:15:35.533Z,94.00
2023-11-03T00:18:03.285Z,94.20
2023-11-03T00:20:31.002Z,94.00
2023-11-03T00:22:58.725Z,93.40
2023-11-03T00:25:26.396Z,93.40
2023-11-03T00:27:56.337Z,93.20
2023-11-03T00:30:24.041Z,93.20
2023-11-03T00:32:51.792Z,93.10
2023-11-03T00:35:19.483Z,93.10
2023-11-03T00:37:47.223Z,93.00
2023-11-03T00:40:15.787Z,93.10
2023-11-03T00:42:43.793Z,92.50
2023-11-03T00:45:12.932Z,92.80
2023-11-03T00:47:41.648Z,92.20
2023-11-03T00:50:10.549Z,91.60
2023-11-03T00:52:38.632Z,91.50
2023-11-03T00:55:07.822Z,91.20
2023-11-03T00:57:38.791Z,90.90
2023-11-03T01:00:11.265Z,90.70
2023-11-03T01:02:40.940Z,90.80
2023-11-03T01:05:11.543Z,90.20
2023-11-03T01:07:39.726Z,90.30
2023-11-03T01:10:09.678Z,90.00
2023-11-03T01:12:37.467Z,90.00
2023-11-03T01:15:07.105Z,89.40
2023-11-03T01:17:36.362Z,89.50
2023-11-03T01:20:13.705Z,89.30
2023-11-03T01:22:41.509Z,88.80
2023-11-03T01:25:12.571Z,88.80
2023-11-03T01:27:43.188Z,89.10
2023-11-03T01:30:14.008Z,89.40
2023-11-03T01:32:42.269Z,88.80
2023-11-03T01:35:11.611Z,88.00
2023-11-03T01:37:39.729Z,88.20
2023-11-03T01:40:09.728Z,87.40
2023-11-03T01:42:37.736Z,87.40
2023-11-03T01:45:06.405Z,87.10
2023-11-03T01:47:34.352Z,86.90
2023-11-03T01:50:02.516Z,87.30
2023-11-03T01:52:34.116Z,86.80
2023-11-03T01:55:02.997Z,86.30
2023-11-03T01:57:31.343Z,85.80
2023-11-03T01:59:59.067Z,86.20
2023-11-03T02:02:28.680Z,86.20
2023-11-03T02:04:56.765Z,86.20
2023-11-03T02:07:25.644Z,85.20
2023-11-03T02:09:54.784Z,85.10
2023-11-03T02:12:22.623Z,85.60
2023-11-03T02:14:52.530Z,85.80
2023-11-03T02:17:20.778Z,85.80
2023-11-03T02:19:49.177Z,86.40
2023-11-03T02:22:16.938Z,85.90
2023-11-03T02:24:46.154Z,85.80
2023-11-03T02:27:14.186Z,85.60
2023-11-03T02:29:41.854Z,85.50
2023-11-03T02:32:10.317Z,84.80
2023-11-03T02:34:38.065Z,85.10
2023-11-03T02:37:06.090Z,85.80
2023-11-03T02:39:37.412Z,85.60
2023-11-03T02:42:06.599Z,86.10
2023-11-03T02:44:34.710Z,86.70
2023-11-03T02:47:02.408Z,86.70
2023-11-03T02:49:32.090Z,86.70
2023-11-03T02:51:59.911Z,85.90
2023-11-03T02:54:27.612Z,83.40
2023-11-03T02:56:55.316Z,83.40
2023-11-03T02:59:24.664Z,83.20
2023-11-03T03:01:52.382Z,83.70
2023-11-03T03:04:20.203Z,83.80
2023-11-03T03:06:48.064Z,84.20
2023-11-03T03:09:16.366Z,83.30
2023-11-03T03:11:44.869Z,83.50
2023-11-03T03:14:12.661Z,82.90
2023-11-03T03:16:41.796Z,83.40
2023-11-03T03:19:09.593Z,83.30
2023-11-03T03:21:37.363Z,83.20
2023-11-03T03:24:05.678Z,83.40
2023-11-03T03:26:33.335Z,83.10
2023-11-03T03:29:01.072Z,82.90
2023-11-03T03:31:28.770Z,83.20
2023-11-03T03:33:57.968Z,82.70
2023-11-03T03:36:25.795Z,83.10
2023-11-03T03:38:53.529Z,83.40
2023-11-03T03:41:21.258Z,83.50
2023-11-03T03:43:48.913Z,83.50
2023-11-03T03:46:16.620Z,83.40
2023-11-03T03:48:45.746Z,83.40
2023-11-03T03:51:16.883Z,82.90
2023-11-03T03:53:44.706Z,83.20
2023-11-03T03:56:12.424Z,83.00
2023-11-03T03:58:40.386Z,83.40
2023-11-03T04:01:08.741Z,83.10
2023-11-03T04:03:36.467Z,82.90
2023-11-03T04:06:05.015Z,83.20
2023-11-03T04:08:34.102Z,83.50
2023-11-03T04:11:02.077Z,83.50
2023-11-03T04:13:29.814Z,83.50
2023-11-03T04:15:57.532Z,83.40
2023-11-03T04:18:25.850Z,83.70
2023-11-03T04:20:53.543Z,84.10
2023-11-03T04:23:21.207Z,84.10
2023-11-03T04:25:51.985Z,83.30
2023-11-03T04:28:19.766Z,83.90
2023-11-03T04:30:47.727Z,83.50
2023-11-03T04:33:15.494Z,83.40
2023-11-03T04:35:43.996Z,83.60
2023-11-03T04:38:11.889Z,83.80
2023-11-03T04:40:39.712Z,83.40
2023-11-03T04:43:13.070Z,83.80
2023-11-03T04:45:40.809Z,83.80
2023-11-03T04:48:08.857Z,82.80
2023-11-03T04:50:36.971Z,83.30
2023-11-03T04:53:04.692Z,83.80
2023-11-03T04:55:32.522Z,83.60
2023-11-03T04:58:01.724Z,83.90
2023-11-03T05:00:30.763Z,83.40
2023-11-03T05:02:58.495Z,83.80
2023-11-03T05:05:31.034Z,84.40
2023-11-03T05:07:58.812Z,84.90
2023-11-03T05:10:26.545Z,84.60
2023-11-03T05:12:54.908Z,84.50
2023-11-03T05:15:22.606Z,84.50
2023-11-03T05:17:51.698Z,84.60
2023-11-03T05:20:20.663Z,85.00
2023-11-03T05:22:48.330Z,84.70
2023-11-03T05:25:16.176Z,84.60
2023-11-03T05:27:44.173Z,85.50
2023-11-03T05:30:12.734Z,84.60
2023-11-03T05:32:40.481Z,84.60
2023-11-03T05:35:10.451Z,84.70
2023-11-03T05:37:38.225Z,84.30
2023-11-03T05:40:06.982Z,84.50
2023-11-03T05:42:34.786Z,84.20
2023-11-03T05:45:02.521Z,84.50
2023-11-03T05:47:30.477Z,84.60
2023-11-03T05:49:58.288Z,84.70
2023-11-03T05:52:27.463Z,84.40
2023-11-03T05:54:55.223Z,84.50
2023-11-03T05:57:22.902Z,84.60
2023-11-03T05:59:50.756Z,85.10
2023-11-03T06:02:19.257Z,85.80
2023-11-03T06:04:47.100Z,86.60
2023-11-03T06:07:15.423Z,87.50
2023-11-03T06:09:44.483Z,88.40
2023-11-03T06:12:12.225Z,87.90
2023-11-03T06:14:39.896Z,89.20
2023-11-03T06:17:07.608Z,89.60
2023-11-03T06:19:35.541Z,90.00
2023-11-03T06:22:03.280Z,88.60
2023-11-03T06:24:31.068Z,88.20
2023-11-03T06:27:00.755Z,88.10
2023-11-03T06:29:28.998Z,88.50
2023-11-03T06:31:56.758Z,88.40
2023-11-03T06:34:24.527Z,88.80
2023-11-03T06:36:52.369Z,88.50
2023-11-03T06:39:21.358Z,88.70
2023-11-03T06:42:00.577Z,88.00
2023-11-03T06:44:28.247Z,87.90
2023-11-03T06:46:55.901Z,88.20
2023-11-03T06:49:23.747Z,87.60
2023-11-03T06:51:51.567Z,87.80
2023-11-03T06:54:20.225Z,88.20
2023-11-03T06:56:47.903Z,88.20
2023-11-03T06:59:16.889Z,88.20
2023-11-03T07:01:44.657Z,88.10
2023-11-03T07:04:12.299Z,88.80
2023-11-03T07:06:40.008Z,87.70
2023-11-03T07:09:07.796Z,87.90
2023-11-03T07:11:35.970Z,88.10
2023-11-03T07:14:06.174Z,87.80
2023-11-03T07:16:35.603Z,88.10
2023-11-03T07:19:03.557Z,88.10
2023-11-03T07:21:33.591Z,87.90
2023-11-03T07:24:03.439Z,87.20
2023-11-03T07:26:32.582Z,87.10
2023-11-03T07:29:00.448Z,87.40
2023-11-03T07:31:28.384Z,87.00
2023-11-03T07:34:00.263Z,87.00
2023-11-03T07:36:28.070Z,87.20
2023-11-03T07:38:55.700Z,86.30
2023-11-03T07:41:23.389Z,87.00
2023-11-03T07:43:53.828Z,87.00
2023-11-03T07:46:22.392Z,87.20
2023-11-03T07:48:50.167Z,86.90
2023-11-03T07:51:20.018Z,86.40
2023-11-03T07:53:47.745Z,86.10
2023-11-03T07:56:15.709Z,86.60
2023-11-03T07:58:43.375Z,86.40
2023-11-03T08:01:11.337Z,85.90
2023-11-03T08:03:39.647Z,86.30
2023-11-03T08:06:07.615Z,86.20
2023-11-03T08:08:37.815Z,86.10
2023-11-03T08:11:05.964Z,86.80
2023-11-03T08:13:33.660Z,86.00
2023-11-03T08:16:01.706Z,85.60
2023-11-03T08:18:31.356Z,86.30
2023-11-03T08:20:59.328Z,85.40
2023-11-03T08:23:27.278Z,85.30
2023-11-03T08:25:56.395Z,85.40
2023-11-03T08:28:24.145Z,85.10
2023-11-03T08:30:52.911Z,85.10
2023-11-03T08:33:20.752Z,85.30
2023-11-03T08:35:51.338Z,84.90
2023-11-03T08:38:19.699Z,85.00
2023-11-03T08:40:47.403Z,84.90
2023-11-03T08:43:16.465Z,84.60
2023-11-03T08:45:44.697Z,84.90
2023-11-03T08:48:13.227Z,84.90
2023-11-03T08:50:40.905Z,84.90
2023-11-03T08:53:08.780Z,85.20
2023-11-03T08:55:36.447Z,86.30
2023-11-03T08:58:04.181Z,86.40
2023-11-03T09:00:33.226Z,86.30
2023-11-03T09:03:01.271Z,86.00
2023-11-03T09:05:29.032Z,86.00
2023-11-03T09:07:56.740Z,85.80
2023-11-03T09:10:25.609Z,85.30
2023-11-03T09:12:54.896Z,85.50
2023-11-03T09:15:22.688Z,85.50
2023-11-03T09:17:51.708Z,85.80
2023-11-03T09:20:19.867Z,85.50
2023-11-03T09:22:49.145Z,85.10
2023-11-03T09:25:17.038Z,85.90
2023-11-03T09:27:44.712Z,86.40
2023-11-03T09:30:12.784Z,86.20
2023-11-03T09:32:41.657Z,86.50
2023-11-03T09:35:11.423Z,87.20
2023-11-03T09:37:39.393Z,88.50
2023-11-03T09:40:08.731Z,88.70
2023-11-03T09:42:38.111Z,90.30
2023-11-03T09:45:16.295Z,91.00
2023-11-03T09:47:45.803Z,91.90
2023-11-03T09:50:14.892Z,91.60
2023-11-03T09:52:48.598Z,91.60
2023-11-03T09:55:20.807Z,91.70
2023-11-03T09:57:50.735Z,92.00
2023-11-03T10:00:22.382Z,90.30
2023-11-03T10:02:50.373Z,90.20
2023-11-03T10:05:20.374Z,88.80
2023-11-03T10:07:53.326Z,89.20
2023-11-03T10:10:21.615Z,88.60
2023-11-03T10:12:49.356Z,89.00
2023-11-03T10:15:17.682Z,88.70
2023-11-03T10:17:48.303Z,87.50
2023-11-03T10:20:16.739Z,87.00
2023-11-03T10:22:48.344Z,86.50
2023-11-03T10:25:16.341Z,86.50
2023-11-03T10:27:50.638Z,87.20
2023-11-03T10:30:20.234Z,85.80
2023-11-03T10:32:48.624Z,85.40
2023-11-03T10:35:16.448Z,85.70
2023-11-03T10:37:47.271Z,86.50
2023-11-03T10:40:15.342Z,85.80
2023-11-03T10:42:49.160Z,84.50
2023-11-03T10:45:18.065Z,85.70
2023-11-03T10:47:57.374Z,85.40
2023-11-03T10:50:31.374Z,85.30
2023-11-03T10:53:11.809Z,86.10
2023-11-03T10:55:47.550Z,85.90
2023-11-03T10:58:15.415Z,85.30
2023-11-03T11:00:49.819Z,85.20
2023-11-03T11:03:24.103Z,84.50
2023-11-03T11:05:58.944Z,84.80
2023-11-03T11:08:33.005Z,85.10
2023-11-03T11:11:03.780Z,84.50
2023-11-03T11:13:32.938Z,84.20
2023-11-03T11:16:09.516Z,85.20
2023-11-03T11:18:44.715Z,84.30
2023-11-03T11:21:15.814Z,85.20
2023-11-03T11:23:48.995Z,84.70
2023-11-03T11:26:32.116Z,83.00
2023-11-03T11:29:04.702Z,83.00
2023-11-03T11:31:41.641Z,84.50
2023-11-03T11:34:13.796Z,83.00
2023-11-03T11:36:43.847Z,83.00
2023-11-03T11:39:15.787Z,82.10
2023-11-03T11:41:49.740Z,82.40
2023-11-03T11:44:20.231Z,82.60
2023-11-03T11:46:53.994Z,81.60
2023-11-03T11:49:23.925Z,80.00
2023-11-03T11:51:52.946Z,80.50
2023-11-03T11:54:23.475Z,81.50
2023-11-03T11:56:52.020Z,80.80
2023-11-03T11:59:21.682Z,81.20
2023-11-03T12:01:50.717Z,81.20
2023-11-03T12:04:19.869Z,81.60
2023-11-03T12:06:48.538Z,81.20
2023-11-03T12:09:17.833Z,81.40
2023-11-03T12:11:47.351Z,81.20
2023-11-03T12:14:15.260Z,82.00
2023-11-03T12:16:43.297Z,81.10
2023-11-03T12:19:16.279Z,81.30
2023-11-03T12:21:44.623Z,81.40
2023-11-03T12:24:13.919Z,81.20
2023-11-03T12:26:42.128Z,81.50
2023-11-03T12:29:28.853Z,81.30
2023-11-03T12:31:57.965Z,81.60
2023-11-03T12:34:29.401Z,82.40
2023-11-03T12:36:58.756Z,81.40
2023-11-03T12:39:27.030Z,81.70
2023-11-03T12:42:03.393Z,82.40
2023-11-03T12:44:32.730Z,81.10
2023-11-03T12:47:02.217Z,82.00
2023-11-03T12:49:30.551Z,81.30
2023-11-03T12:51:58.874Z,81.50
2023-11-03T12:54:26.725Z,82.30
2023-11-03T12:56:57.788Z,82.00
2023-11-03T12:59:25.621Z,81.40
2023-11-03T13:01:55.129Z,81.50
2023-11-03T13:04:23.061Z,81.40
2023-11-03T13:06:54.288Z,82.30
2023-11-03T13:09:25.130Z,82.70
2023-11-03T13:11:53.139Z,83.30
2023-11-03T13:14:20.845Z,83.20
2023-11-03T13:16:48.519Z,83.40
2023-11-03T13:19:18.064Z,84.00
2023-11-03T13:21:45.762Z,83.70
2023-11-03T13:24:13.838Z,83.90
2023-11-03T13:26:41.726Z,83.20
2023-11-03T13:29:09.470Z,83.30
2023-11-03T13:31:37.421Z,83.00
2023-11-03T13:34:05.216Z,83.00
2023-11-03T13:36:35.557Z,83.60
2023-11-03T13:39:03.547Z,83.00
2023-11-03T13:41:31.185Z,83.90
2023-11-03T13:43:58.862Z,84.40
2023-11-03T13:46:26.684Z,84.70
2023-11-03T13:48:55.445Z,84.50
2023-11-03T13:51:24.910Z,84.70
2023-11-03T13:53:55.399Z,84.70
2023-11-03T13:56:23.161Z,86.50
2023-11-03T13:58:50.923Z,88.20
2023-11-03T14:01:18.830Z,89.50
2023-11-03T14:03:46.820Z,90.20
2023-11-03T14:06:18.816Z,91.10
2023-11-03T14:08:46.505Z,91.00
2023-11-03T14:11:16.092Z,90.50
2023-11-03T14:13:46.321Z,91.10
2023-11-03T14:16:15.653Z,91.10
2023-11-03T14:18:43.534Z,90.60
2023-11-03T14:21:12.085Z,90.70
2023-11-03T14:23:39.737Z,90.40
2023-11-03T14:26:07.548Z,90.00
2023-11-03T14:28:36.843Z,89.10
2023-11-03T14:31:05.169Z,89.00
2023-11-03T14:33:33.933Z,89.70
2023-11-03T14:36:01.778Z,89.40
2023-11-03T14:38:29.762Z,88.90
2023-11-03T14:41:00.161Z,87.90
2023-11-03T14:43:28.046Z,88.90
2023-11-03T14:45:57.849Z,88.30
2023-11-03T14:48:25.635Z,88.30
2023-11-03T14:50:53.883Z,88.50
2023-11-03T14:53:21.971Z,87.60
2023-11-03T14:55:49.673Z,87.10
2023-11-03T14:58:17.805Z,87.20
2023-11-03T15:00:45.855Z,87.20
2023-11-03T15:03:15.138Z,87.40
2023-11-03T15:05:43.050Z,87.00
2023-11-03T15:08:10.724Z,87.40
2023-11-03T15:10:38.535Z,86.80
2023-11-03T15:13:06.290Z,86.80
2023-11-03T15:15:38.487Z,88.10
2023-11-03T15:18:07.470Z,88.40
2023-11-03T15:20:36.878Z,88.30
2023-11-03T15:23:04.618Z,87.80
2023-11-03T15:25:32.399Z,87.40
2023-11-03T15:28:00.118Z,87.70
2023-11-03T15:30:29.468Z,88.60
2023-11-03T15:32:57.338Z,88.20
2023-11-03T15:35:26.805Z,88.40
2023-11-03T15:37:56.385Z,88.00
2023-11-03T15:40:25.223Z,88.20
2023-11-03T15:42:53.103Z,88.20
2023-11-03T15:45:21.010Z,88.40
2023-11-03T15:47:49.837Z,87.50
2023-11-03T15:50:21.421Z,87.70
2023-11-03T15:52:51.293Z,87.60
2023-11-03T15:55:20.859Z,86.70
2023-11-03T15:57:51.292Z,86.80
2023-11-03T16:00:21.180Z,87.50
2023-11-03T16:02:49.644Z,87.80
2023-11-03T16:05:17.787Z,87.70
2023-11-03T16:07:45.601Z,87.30
2023-11-03T16:10:17.034Z,87.20
2023-11-03T16:12:47.530Z,87.80
2023-11-03T16:15:16.795Z,88.00
2023-11-03T16:17:48.016Z,88.50
2023-11-03T16:20:18.510Z,88.40
2023-11-03T16:22:47.458Z,88.60
2023-11-03T16:25:16.164Z,88.70
2023-11-03T16:27:46.277Z,89.00
2023-11-03T16:30:17.208Z,90.00
2023-11-03T16:32:47.476Z,90.30
2023-11-03T16:35:15.545Z,90.70
2023-11-03T16:37:43.339Z,90.40
2023-11-03T16:40:12.827Z,91.30
2023-11-03T16:42:40.739Z,91.70
2023-11-03T16:45:11.707Z,91.90
2023-11-03T16:47:39.904Z,92.10
2023-11-03T16:50:10.461Z,91.90
2023-11-03T16:52:39.367Z,91.60
2023-11-03T16:55:09.129Z,91.30
2023-11-03T16:57:38.318Z,91.50
2023-11-03T17:00:12.485Z,91.10
2023-11-03T17:02:45.237Z,91.10
2023-11-03T17:05:15.807Z,91.50
2023-11-03T17:07:43.991Z,91.70
2023-11-03T17:10:12.546Z,91.70
2023-11-03T17:12:53.189Z,91.40
2023-11-03T17:15:27.492Z,91.40
2023-11-03T17:17:57.145Z,91.50
2023-11-03T17:20:25.239Z,91.50
2023-11-03T17:22:53.364Z,91.70
2023-11-03T17:25:21.281Z,91.90
2023-11-03T17:27:49.397Z,92.00
2023-11-03T17:30:19.377Z,92.00
2023-11-03T17:32:49.066Z,92.20
2023-11-03T17:35:21.298Z,92.30
2023-11-03T17:37:49.506Z,92.70
2023-11-03T17:40:18.011Z,92.80
2023-11-03T17:42:46.415Z,93.20
2023-11-03T17:45:17.161Z,93.40
2023-11-03T17:47:45.927Z,93.50
2023-11-03T17:50:15.047Z,93.60
2023-11-03T17:52:44.647Z,93.70
2023-11-03T17:55:14.376Z,93.70
2023-11-03T17:57:47.151Z,93.80
2023-11-03T18:00:18.428Z,94.30
2023-11-03T18:02:47.012Z,94.40
2023-11-03T18:05:16.524Z,94.00
2023-11-03T18:07:47.178Z,94.00
2023-11-03T18:10:14.980Z,94.10
2023-11-03T18:12:43.194Z,94.20
2023-11-03T18:15:14.154Z,94.10
2023-11-03T18:17:42.446Z,94.00
2023-11-03T18:20:13.672Z,94.20
2023-11-03T18:22:42.601Z,94.40
2023-11-03T18:25:12.670Z,93.90
2023-11-03T18:27:41.368Z,94.00
2023-11-03T18:30:11.457Z,94.00
2023-11-03T18:32:39.986Z,93.70
2023-11-03T18:35:09.914Z,93.40
2023-11-03T18:37:38.762Z,93.20
2023-11-03T18:40:08.226Z,92.90
2023-11-03T18:42:37.327Z,92.80
2023-11-03T18:45:05.344Z,92.40
2023-11-03T18:47:34.611Z,92.40
2023-11-03T18:52:33.384Z,92.40
2023-11-03T18:55:57.005Z,92.30
2023-11-03T19:00:55.648Z,92.60
2023-11-03T19:07:25.815Z,92.40
2023-11-03T19:08:29.820Z,92.60
2023-11-03T19:10:57.906Z,92.80
2023-11-03T19:13:26.976Z,92.70
2023-11-03T19:15:54.833Z,92.70
2023-11-03T19:18:23.518Z,92.30
2023-11-03T19:20:51.498Z,92.50
2023-11-03T19:23:20.173Z,92.60
2023-11-03T19:25:48.262Z,92.80
2023-11-03T19:28:16.701Z,92.70
2023-11-03T19:30:46.548Z,92.90
2023-11-03T19:33:14.817Z,92.80
2023-11-03T19:35:49.022Z,92.80
2023-11-03T19:38:18.083Z,92.90
2023-11-03T19:40:46.848Z,93.10
2023-11-03T19:43:14.655Z,93.20
2023-11-03T19:45:42.389Z,93.10
2023-11-03T19:48:12.187Z,93.60
2023-11-03T19:50:40.324Z,93.60
2023-11-03T19:53:08.197Z,93.60
2023-11-03T19:55:35.912Z,93.60
2023-11-03T19:58:04.738Z,93.40
2023-11-03T20:00:34.578Z,93.50
2023-11-03T20:03:04.495Z,93.30
2023-11-03T20:05:33.680Z,92.90
2023-11-03T20:08:02.498Z,93.00
2023-11-03T20:10:30.461Z,93.00
2023-11-03T20:12:58.256Z,93.00
2023-11-03T20:15:27.298Z,93.20
2023-11-03T20:17:55.761Z,93.30
2023-11-03T20:20:24.054Z,93.20
2023-11-03T20:22:55.568Z,93.20
2023-11-03T20:25:23.436Z,93.30
2023-11-03T20:27:51.190Z,93.30
2023-11-03T20:30:20.461Z,93.30
2023-11-03T20:32:48.718Z,93.30
2023-11-03T20:35:18.565Z,93.50
2023-11-03T20:37:46.278Z,93.60
2023-11-03T20:40:16.215Z,93.70
2023-11-03T20:42:43.932Z,93.90
2023-11-03T20:45:13.002Z,93.80
2023-11-03T20:47:40.939Z,93.70
2023-11-03T20:50:10.039Z,93.90
2023-11-03T20:52:37.781Z,94.00
2023-11-03T20:55:06.392Z,93.90
2023-11-03T20:57:35.729Z,93.90
2023-11-03T21:00:04.871Z,93.70
2023-11-03T21:02:32.703Z,93.70
2023-11-03T21:05:00.687Z,93.70
2023-11-03T21:07:28.669Z,93.80
2023-11-03T21:09:56.482Z,93.80
2023-11-03T21:12:24.238Z,93.90
2023-11-03T21:14:53.310Z,93.80
2023-11-03T21:17:22.176Z,94.00
2023-11-03T21:19:49.952Z,93.90
2023-11-03T21:22:20.341Z,93.80
2023-11-03T21:24:48.294Z,93.90
2023-11-03T21:27:16.133Z,93.80
2023-11-03T21:29:44.182Z,93.80
2023-11-03T21:32:13.233Z,93.80
2023-11-03T21:34:41.374Z,93.40
2023-11-03T21:37:09.120Z,93.40
2023-11-03T21:39:36.873Z,93.40
2023-11-03T21:42:05.520Z,93.40
2023-11-03T21:44:34.325Z,93.50
2023-11-03T21:47:02.771Z,93.70
2023-11-03T21:49:32.174Z,93.50
2023-11-03T21:51:59.898Z,93.80
2023-11-03T21:54:27.639Z,93.90
2023-11-03T21:56:57.175Z,93.90
2023-11-03T21:59:24.864Z,93.80
2023-11-03T22:01:52.549Z,94.00
2023-11-03T22:04:21.680Z,93.80
2023-11-03T22:06:51.272Z,93.70
2023-11-03T22:09:19.489Z,93.90
2023-11-03T22:11:47.639Z,93.80
2023-11-03T22:14:15.815Z,93.80
2023-11-03T22:16:43.548Z,93.70
2023-11-03T22:19:11.552Z,93.60
2023-11-03T22:21:39.348Z,93.70
2023-11-03T22:24:09.212Z,93.70
2023-11-03T22:26:43.260Z,93.80
2023-11-03T22:29:12.646Z,93.60
2023-11-03T22:31:47.452Z,93.60
2023-11-03T22:34:16.037Z,93.50
2023-11-03T22:36:44.189Z,93.20
2023-11-03T22:39:14.481Z,93.20
2023-11-03T22:41:42.265Z,93.10
2023-11-03T22:44:10.005Z,93.20
2023-11-03T22:46:37.768Z,93.00
2023-11-03T22:49:05.921Z,92.80
2023-11-03T22:51:33.793Z,92.40
2023-11-03T22:54:02.435Z,92.30
2023-11-03T22:56:32.078Z,92.30
2023-11-03T22:58:59.857Z,92.30
2023-11-03T23:01:27.553Z,92.00
2023-11-03T23:03:55.260Z,92.00
2023-11-03T23:06:23.196Z,92.30
2023-11-03T23:08:51.051Z,92.00
2023-11-03T23:11:18.830Z,91.70
2023-11-03T23:13:48.370Z,91.60
2023-11-03T23:16:16.133Z,91.40
2023-11-03T23:18:43.882Z,90.90
2023-11-03T23:21:13.060Z,91.30
2023-11-03T23:23:43.179Z,91.30
2023-11-03T23:26:10.895Z,91.50
2023-11-03T23:28:41.102Z,91.30
2023-11-03T23:31:10.279Z,90.80
2023-11-03T23:33:38.098Z,91.00
2023-11-03T23:36:06.599Z,90.90
2023-11-03T23:38:34.371Z,91.10
2023-11-03T23:41:02.071Z,91.50
2023-11-03T23:43:29.765Z,92.00
2023-11-03T23:46:02.185Z,92.30
2023-11-03T23:48:33.504Z,92.00
2023-11-03T23:51:01.267Z,92.00
2023-11-03T23:53:28.987Z,91.90
2023-11-03T23:55:56.772Z,90.80
2023-11-03T23:58:24.519Z,90.50
